Terminal Aerodrome Forecast
Issued by NWS Sterling, VA

Current Version | Previous Version | Text Only | Print | Product List | Glossary Off
Versions: 1 2 3 4 5 6 7 8 9 10 11 12 13 14 15 16 17 18 19 20 21 22 23

324
FTUS41 KLWX 221457 AAA
TAFDCA
TAF AMD
KDCA 221457Z 2215/2312 19005KT P6SM BKN250
     FM221800 22008KT P6SM SCT070 BKN250
     FM230000 20007KT P6SM VCSH SCT070 SCT200
     FM230400 24004KT P6SM SCT070 SCT200=

USA.gov is the U.S. government's official web portal to all federal, state and local government web resources and services.